Camp Murray, Washington
Current Conditions -  °F | °C
As of 4:53 PM on Tuesday 21 Oct 2014 (Local Time) from KTIW Reporting Station
Broken Clouds Broken Clouds  
Wind Chill: 60°   Ceiling: 9000
Heat Index: 60°   Visibility: 10mi
Dew Point: 48°   Wind: 16mph
Humidity: 64%   Direction: 180°S
Pressure: 29.88"   Gusts: 24mph
Location:  47.25°N, 122.44°W
Report Text: KTIW 212353Z 18014G21KT 10SM SCT060 BKN090 16/09 A2988 RMK AO2 SLP116 60000 T01560089 10167 20133 58012
Loading
Personal Weather Stations






























Interactive Weather Map
Tropical Storm Tracking
New forecast layout! Learn more

10-Day Weather Forecast

Advertisements
Track Severe Weather on mobile